Time,TemperatureF,DewpointF,PressureIn,WindDirection,WindDirectionDegrees,WindSpeedMPH,WindSpeedGustMPH,Humidity,HourlyPrecipIn,Conditions,Clouds,dailyrainin,SolarRadiationWatts/m^2,SoftwareType,DateUTC
2013-05-21 00:03:00,72.0,66.0,-100.00,SSE,158,0.0,6.0,82,0.00,,,0.00,0.000000,,2013-05-21 04:03:00,
2013-05-21 00:33:00,71.0,65.0,-100.00,South,181,1.0,5.0,81,0.00,,,0.00,0.000000,,2013-05-21 04:33:00,
2013-05-21 00:42:00,71.0,65.0,-100.00,South,181,1.0,5.0,81,0.00,,,0.00,0.000000,,2013-05-21 04:42:00,
2013-05-21 00:53:00,71.0,65.0,-100.00,South,181,1.0,5.0,81,0.00,,,0.00,0.000000,,2013-05-21 04:53:00,
2013-05-21 01:02:00,71.0,65.0,-100.00,South,181,1.0,5.0,81,0.00,,,0.00,0.000000,,2013-05-21 05:02:00,
2013-05-21 01:32:00,71.0,66.0,-100.00,WSW,240,2.0,9.0,83,0.00,,,0.00,0.000000,,2013-05-21 05:32:00,
2013-05-21 01:42:00,71.0,66.0,-100.00,WSW,240,2.0,9.0,83,0.00,,,0.00,0.000000,,2013-05-21 05:42:00,
2013-05-21 01:52:00,71.0,66.0,-100.00,WSW,240,2.0,9.0,83,0.00,,,0.00,0.000000,,2013-05-21 05:52:00,
2013-05-21 02:02:00,71.0,66.0,-100.00,WSW,240,2.0,9.0,83,0.00,,,0.00,0.000000,,2013-05-21 06:02:00,
2013-05-21 02:32:00,70.0,65.0,-100.00,SW,230,2.0,9.0,83,0.00,,,0.00,0.000000,,2013-05-21 06:32:00,
2013-05-21 02:42:00,70.0,65.0,-100.00,SW,230,2.0,9.0,83,0.00,,,0.00,0.000000,,2013-05-21 06:42:00,
2013-05-21 02:52:00,70.0,65.0,-100.00,SW,230,2.0,9.0,83,0.00,,,0.00,0.000000,,2013-05-21 06:52:00,
2013-05-21 03:01:00,70.0,65.0,-100.00,SW,230,2.0,9.0,83,0.00,,,0.00,0.000000,,2013-05-21 07:01:00,
2013-05-21 03:32:00,71.0,66.0,-100.00,WSW,245,2.0,12.0,83,0.00,,,0.00,0.000000,,2013-05-21 07:32:00,
2013-05-21 03:42:00,71.0,66.0,-100.00,WSW,245,2.0,12.0,83,0.00,,,0.00,0.000000,,2013-05-21 07:42:00,
2013-05-21 03:52:00,71.0,66.0,-100.00,WSW,245,2.0,12.0,83,0.00,,,0.00,0.000000,,2013-05-21 07:52:00,
2013-05-21 04:02:00,71.0,66.0,-100.00,WSW,245,2.0,12.0,83,0.00,,,0.00,0.000000,,2013-05-21 08:02:00,
2013-05-21 05:33:00,65.0,59.0,-100.00,WSW,249,1.0,12.0,82,-99.99,,,0.00,0.000000,,2013-05-21 09:33:00,
2013-05-21 05:42:00,65.0,59.0,-100.00,WSW,249,1.0,12.0,82,-99.99,,,0.00,0.000000,,2013-05-21 09:42:00,
2013-05-21 05:53:00,65.0,59.0,-100.00,WSW,249,1.0,12.0,82,-99.99,,,0.00,0.000000,,2013-05-21 09:53:00,
2013-05-21 06:02:00,65.0,59.0,-100.00,WSW,249,1.0,12.0,82,-99.99,,,0.00,0.000000,,2013-05-21 10:02:00,
2013-05-21 06:33:00,62.0,60.0,-100.00,SSW,195,0.0,2.0,92,0.00,,,0.00,0.000000,,2013-05-21 10:33:00,
2013-05-21 06:42:00,62.0,60.0,-100.00,SSW,195,0.0,2.0,92,0.00,,,0.00,0.000000,,2013-05-21 10:42:00,
2013-05-21 06:52:00,62.0,60.0,-100.00,SSW,195,0.0,2.0,92,0.00,,,0.00,0.000000,,2013-05-21 10:52:00,
2013-05-21 07:02:00,62.0,60.0,-100.00,SSW,195,0.0,2.0,92,0.00,,,0.00,0.000000,,2013-05-21 11:02:00,
2013-05-21 07:42:00,63.0,60.0,-100.00,ESE,117,0.0,3.0,91,0.00,,,0.00,6.000000,,2013-05-21 11:42:00,
2013-05-21 07:52:00,63.0,60.0,-100.00,ESE,117,0.0,3.0,91,0.00,,,0.00,6.000000,,2013-05-21 11:52:00,
2013-05-21 08:01:00,63.0,60.0,-100.00,ESE,117,0.0,3.0,91,0.00,,,0.00,6.000000,,2013-05-21 12:01:00,
2013-05-21 08:32:00,63.0,62.0,-100.00,SSW,205,1.0,12.0,95,0.06,,,0.06,9.000000,,2013-05-21 12:32:00,
2013-05-21 08:42:00,63.0,62.0,-100.00,SSW,205,1.0,12.0,95,0.06,,,0.06,9.000000,,2013-05-21 12:42:00,
2013-05-21 08:52:00,63.0,62.0,-100.00,SSW,205,1.0,12.0,95,0.06,,,0.06,9.000000,,2013-05-21 12:52:00,
2013-05-21 09:01:00,63.0,62.0,-100.00,SSW,205,1.0,12.0,95,0.06,,,0.06,9.000000,,2013-05-21 13:01:00,
2013-05-21 09:32:00,64.0,63.0,-100.00,SSE,152,4.0,11.0,97,0.02,,,-99.99,74.000000,,2013-05-21 13:32:00,
2013-05-21 09:42:00,64.0,63.0,-100.00,SSE,152,4.0,11.0,97,0.02,,,-99.99,74.000000,,2013-05-21 13:42:00,
2013-05-21 09:52:00,64.0,63.0,-100.00,SSE,152,4.0,11.0,97,0.02,,,-99.99,74.000000,,2013-05-21 13:52:00,
2013-05-21 10:01:00,64.0,63.0,-100.00,SSE,152,4.0,11.0,97,0.02,,,-99.99,74.000000,,2013-05-21 14:01:00,
2013-05-21 10:42:00,69.0,65.0,-100.00,South,186,1.0,9.0,86,0.00,,,0.08,258.000000,,2013-05-21 14:42:00,
2013-05-21 10:52:00,69.0,65.0,-100.00,South,186,1.0,9.0,86,0.00,,,0.08,258.000000,,2013-05-21 14:52:00,
2013-05-21 11:01:00,69.0,65.0,-100.00,South,186,1.0,9.0,86,0.00,,,0.08,258.000000,,2013-05-21 15:01:00,
2013-05-21 12:32:00,79.0,65.0,-100.00,WSW,237,2.0,10.0,63,-99.99,,,0.08,730.000000,,2013-05-21 16:32:00,
2013-05-21 12:42:00,79.0,65.0,-100.00,WSW,237,2.0,10.0,63,-99.99,,,0.08,730.000000,,2013-05-21 16:42:00,
2013-05-21 12:53:00,79.0,65.0,-100.00,WSW,237,2.0,10.0,63,-99.99,,,0.08,730.000000,,2013-05-21 16:53:00,
2013-05-21 13:02:00,79.0,65.0,-100.00,WSW,237,2.0,10.0,63,-99.99,,,0.08,730.000000,,2013-05-21 17:02:00,
2013-05-21 13:44:00,83.0,66.0,-100.00,West,269,3.0,11.0,57,0.00,,,0.08,857.000000,,2013-05-21 17:44:00,
2013-05-21 13:52:00,83.0,66.0,-100.00,West,269,3.0,11.0,57,0.00,,,0.08,857.000000,,2013-05-21 17:52:00,
2013-05-21 14:02:00,83.0,66.0,-100.00,West,269,3.0,11.0,57,0.00,,,0.08,857.000000,,2013-05-21 18:02:00,
2013-05-21 14:32:00,82.0,65.0,-100.00,West,259,4.0,12.0,56,0.00,,,0.08,783.000000,,2013-05-21 18:32:00,
2013-05-21 14:42:00,82.0,65.0,-100.00,West,259,4.0,12.0,56,0.00,,,0.08,783.000000,,2013-05-21 18:42:00,
2013-05-21 14:52:00,82.0,65.0,-100.00,West,259,4.0,12.0,56,0.00,,,0.08,783.000000,,2013-05-21 18:52:00,
2013-05-21 15:01:00,82.0,65.0,-100.00,West,259,4.0,12.0,56,0.00,,,0.08,783.000000,,2013-05-21 19:01:00,
2013-05-21 15:32:00,82.0,63.0,-100.00,West,261,4.0,18.0,53,0.00,,,-99.99,739.000000,,2013-05-21 19:32:00,
2013-05-21 15:42:00,82.0,63.0,-100.00,West,261,4.0,18.0,53,0.00,,,-99.99,739.000000,,2013-05-21 19:42:00,
2013-05-21 15:52:00,82.0,63.0,-100.00,West,261,4.0,18.0,53,0.00,,,-99.99,739.000000,,2013-05-21 19:52:00,
2013-05-21 16:03:00,82.0,63.0,-100.00,West,261,4.0,18.0,53,0.00,,,-99.99,739.000000,,2013-05-21 20:03:00,
2013-05-21 16:33:00,79.0,61.0,-100.00,West,267,6.0,17.0,55,0.00,,,0.08,545.000000,,2013-05-21 20:33:00,
2013-05-21 16:42:00,79.0,61.0,-100.00,West,267,6.0,17.0,55,0.00,,,0.08,545.000000,,2013-05-21 20:42:00,
2013-05-21 16:52:00,79.0,61.0,-100.00,West,267,6.0,17.0,55,0.00,,,0.08,545.000000,,2013-05-21 20:52:00,
2013-05-21 17:02:00,79.0,61.0,-100.00,West,267,6.0,17.0,55,0.00,,,0.08,545.000000,,2013-05-21 21:02:00,
2013-05-21 17:33:00,81.0,64.0,-100.00,West,269,4.0,15.0,56,0.00,,,-99.99,554.000000,,2013-05-21 21:33:00,
2013-05-21 17:43:00,81.0,64.0,-100.00,West,269,4.0,15.0,56,0.00,,,-99.99,554.000000,,2013-05-21 21:43:00,
2013-05-21 17:54:00,81.0,64.0,-100.00,West,269,4.0,15.0,56,0.00,,,-99.99,554.000000,,2013-05-21 21:54:00,
2013-05-21 18:02:00,81.0,64.0,-100.00,West,269,4.0,15.0,56,0.00,,,-99.99,554.000000,,2013-05-21 22:02:00,
2013-05-21 18:33:00,79.0,62.0,-100.00,West,281,0.0,17.0,56,0.00,,,0.08,394.000000,,2013-05-21 22:33:00,
2013-05-21 18:42:00,79.0,62.0,-100.00,West,281,0.0,17.0,56,0.00,,,0.08,394.000000,,2013-05-21 22:42:00,
2013-05-21 18:53:00,79.0,62.0,-100.00,West,281,0.0,17.0,56,0.00,,,0.08,394.000000,,2013-05-21 22:53:00,
2013-05-21 19:02:00,79.0,62.0,-100.00,West,281,0.0,17.0,56,0.00,,,0.08,394.000000,,2013-05-21 23:02:00,
2013-05-21 19:32:00,80.0,62.0,-100.00,West,263,0.0,5.0,54,0.00,,,0.08,307.000000,,2013-05-21 23:32:00,
2013-05-21 19:42:00,80.0,62.0,-100.00,West,263,0.0,5.0,54,0.00,,,0.08,307.000000,,2013-05-21 23:42:00,
2013-05-21 19:52:00,80.0,62.0,-100.00,West,263,0.0,5.0,54,0.00,,,0.08,307.000000,,2013-05-21 23:52:00,
2013-05-21 20:01:00,80.0,62.0,-100.00,West,263,0.0,5.0,54,0.00,,,0.08,307.000000,,2013-05-22 00:01:00,
2013-05-21 21:32:00,70.0,61.0,-100.00,SSW,199,0.0,6.0,72,-99.99,,,0.08,15.000000,,2013-05-22 01:32:00,
2013-05-21 21:42:00,70.0,61.0,-100.00,SSW,199,0.0,6.0,72,-99.99,,,0.08,15.000000,,2013-05-22 01:42:00,
2013-05-21 21:52:00,70.0,61.0,-100.00,SSW,199,0.0,6.0,72,-99.99,,,0.08,15.000000,,2013-05-22 01:52:00,
2013-05-21 22:01:00,70.0,61.0,-100.00,SSW,199,0.0,6.0,72,-99.99,,,0.08,15.000000,,2013-05-22 02:01:00,
2013-05-21 22:32:00,69.0,61.0,-100.00,North,4,0.0,4.0,76,0.00,,,0.08,0.000000,,2013-05-22 02:32:00,
2013-05-21 22:42:00,69.0,61.0,-100.00,North,4,0.0,4.0,76,0.00,,,0.08,0.000000,,2013-05-22 02:42:00,
2013-05-21 22:52:00,69.0,61.0,-100.00,North,4,0.0,4.0,76,0.00,,,0.08,0.000000,,2013-05-22 02:52:00,
2013-05-21 23:01:00,69.0,61.0,-100.00,North,4,0.0,4.0,76,0.00,,,0.08,0.000000,,2013-05-22 03:01:00,
2013-05-21 23:33:00,69.0,63.0,-100.00,SSW,210,1.0,8.0,82,0.00,,,0.08,0.000000,,2013-05-22 03:33:00,
2013-05-21 23:43:00,69.0,63.0,-100.00,SSW,210,1.0,8.0,82,0.00,,,0.08,0.000000,,2013-05-22 03:43:00,
2013-05-21 23:53:00,69.0,63.0,-100.00,SSW,210,1.0,8.0,82,0.00,,,0.08,0.000000,,2013-05-22 03:53:00,